Papere Vagabonde

Aviosuperficie Caposile LIKI

Pista 04


Pista 22

Le immagini vengono aggiornate ogni minuto
Cliccare sull'immagine per l'ingrandimento.

METAR LIPZ

LIPZ 261450Z 20005KT 8000 NSC 08/05 Q1023 NOSIG

TAF LIPZ 261100Z 2612/2718 VRB05KT CAVOK
  BECMG 2700/2702 3000 BR
  TEMPO 2704/2707 1200 BCFG
  BECMG 2709/2711 6000




Mappa Fronti